sensor_id;sensor_type;location;lat;lon;timestamp;temperature;humidity
983;DHT22;480;48.124;11.578;2023-06-14T00:02:17;17.30;87.80
983;DHT22;480;48.124;11.578;2023-06-14T00:04:44;17.30;88.50
983;DHT22;480;48.124;11.578;2023-06-14T00:07:13;17.30;88.80
983;DHT22;480;48.124;11.578;2023-06-14T00:09:42;17.40;88.70
983;DHT22;480;48.124;11.578;2023-06-14T00:12:10;17.60;88.90
983;DHT22;480;48.124;11.578;2023-06-14T00:14:37;17.60;89.50
983;DHT22;480;48.124;11.578;2023-06-14T00:17:05;17.70;88.70
983;DHT22;480;48.124;11.578;2023-06-14T00:19:32;17.70;88.40
983;DHT22;480;48.124;11.578;2023-06-14T00:22:02;17.70;88.50
983;DHT22;480;48.124;11.578;2023-06-14T00:24:29;17.70;88.40
983;DHT22;480;48.124;11.578;2023-06-14T00:26:56;17.60;88.30
983;DHT22;480;48.124;11.578;2023-06-14T00:29:24;17.50;88.50
983;DHT22;480;48.124;11.578;2023-06-14T00:31:51;17.50;89.10
983;DHT22;480;48.124;11.578;2023-06-14T00:34:18;17.30;88.10
983;DHT22;480;48.124;11.578;2023-06-14T00:36:46;17.00;89.00
983;DHT22;480;48.124;11.578;2023-06-14T00:39:13;17.10;89.10
983;DHT22;480;48.124;11.578;2023-06-14T00:41:40;17.10;89.20
983;DHT22;480;48.124;11.578;2023-06-14T00:44:07;17.20;89.10
983;DHT22;480;48.124;11.578;2023-06-14T00:46:35;17.30;89.40
983;DHT22;480;48.124;11.578;2023-06-14T00:49:03;17.20;89.00
983;DHT22;480;48.124;11.578;2023-06-14T00:51:30;17.20;89.00
983;DHT22;480;48.124;11.578;2023-06-14T00:53:57;17.30;89.90
983;DHT22;480;48.124;11.578;2023-06-14T00:56:24;17.30;89.60
983;DHT22;480;48.124;11.578;2023-06-14T00:58:51;17.10;88.70
983;DHT22;480;48.124;11.578;2023-06-14T01:01:19;17.00;89.60
983;DHT22;480;48.124;11.578;2023-06-14T01:03:47;16.80;89.80
983;DHT22;480;48.124;11.578;2023-06-14T01:06:20;17.00;89.40
983;DHT22;480;48.124;11.578;2023-06-14T01:09:01;16.90;88.90
983;DHT22;480;48.124;11.578;2023-06-14T01:11:32;16.80;89.00
983;DHT22;480;48.124;11.578;2023-06-14T01:14:02;16.70;89.10
983;DHT22;480;48.124;11.578;2023-06-14T01:16:30;16.70;89.40
983;DHT22;480;48.124;11.578;2023-06-14T01:18:59;16.80;89.10
983;DHT22;480;48.124;11.578;2023-06-14T01:21:27;16.80;88.50
983;DHT22;480;48.124;11.578;2023-06-14T01:23:56;16.30;90.10
983;DHT22;480;48.124;11.578;2023-06-14T01:26:24;16.00;90.40
983;DHT22;480;48.124;11.578;2023-06-14T01:28:54;16.10;90.50
983;DHT22;480;48.124;11.578;2023-06-14T01:31:24;16.00;90.50
983;DHT22;480;48.124;11.578;2023-06-14T01:33:52;16.00;90.40
983;DHT22;480;48.124;11.578;2023-06-14T01:36:20;16.10;90.40
983;DHT22;480;48.124;11.578;2023-06-14T01:38:48;16.30;90.10
983;DHT22;480;48.124;11.578;2023-06-14T01:41:19;16.10;90.10
983;DHT22;480;48.124;11.578;2023-06-14T01:43:49;16.00;90.50
983;DHT22;480;48.124;11.578;2023-06-14T01:46:16;16.00;90.80
983;DHT22;480;48.124;11.578;2023-06-14T01:48:44;16.00;90.20
983;DHT22;480;48.124;11.578;2023-06-14T01:51:11;16.00;90.50
983;DHT22;480;48.124;11.578;2023-06-14T01:53:38;15.80;90.60
983;DHT22;480;48.124;11.578;2023-06-14T01:56:06;15.90;90.70
983;DHT22;480;48.124;11.578;2023-06-14T01:58:34;16.00;90.60
983;DHT22;480;48.124;11.578;2023-06-14T02:01:02;15.90;90.80
983;DHT22;480;48.124;11.578;2023-06-14T02:03:29;15.90;90.70
983;DHT22;480;48.124;11.578;2023-06-14T02:05:56;16.00;90.90
983;DHT22;480;48.124;11.578;2023-06-14T02:08:23;16.10;90.90
983;DHT22;480;48.124;11.578;2023-06-14T02:10:50;16.10;91.00
983;DHT22;480;48.124;11.578;2023-06-14T02:13:18;16.10;91.10
983;DHT22;480;48.124;11.578;2023-06-14T02:15:46;16.10;91.30
983;DHT22;480;48.124;11.578;2023-06-14T02:18:16;16.10;91.50
983;DHT22;480;48.124;11.578;2023-06-14T02:20:43;15.70;91.60
983;DHT22;480;48.124;11.578;2023-06-14T02:23:10;15.60;91.70
983;DHT22;480;48.124;11.578;2023-06-14T02:25:37;15.80;92.00
983;DHT22;480;48.124;11.578;2023-06-14T02:28:05;15.80;91.50
983;DHT22;480;48.124;11.578;2023-06-14T02:30:32;15.90;91.70
983;DHT22;480;48.124;11.578;2023-06-14T02:33:00;16.00;92.60
983;DHT22;480;48.124;11.578;2023-06-14T02:35:30;16.00;93.40
983;DHT22;480;48.124;11.578;2023-06-14T02:37:57;16.10;93.30
983;DHT22;480;48.124;11.578;2023-06-14T02:40:24;16.10;93.50
983;DHT22;480;48.124;11.578;2023-06-14T02:42:51;16.10;93.80
983;DHT22;480;48.124;11.578;2023-06-14T02:45:18;16.10;93.90
983;DHT22;480;48.124;11.578;2023-06-14T02:47:46;16.00;94.20
983;DHT22;480;48.124;11.578;2023-06-14T02:50:15;15.90;94.40
983;DHT22;480;48.124;11.578;2023-06-14T02:52:43;15.90;94.60
983;DHT22;480;48.124;11.578;2023-06-14T02:55:11;15.90;94.30
983;DHT22;480;48.124;11.578;2023-06-14T02:57:38;15.80;94.20
983;DHT22;480;48.124;11.578;2023-06-14T03:00:06;15.80;94.40
983;DHT22;480;48.124;11.578;2023-06-14T03:02:35;15.80;94.40
983;DHT22;480;48.124;11.578;2023-06-14T03:05:02;15.70;94.40
983;DHT22;480;48.124;11.578;2023-06-14T03:07:31;15.80;94.80
983;DHT22;480;48.124;11.578;2023-06-14T03:10:00;15.70;94.20
983;DHT22;480;48.124;11.578;2023-06-14T03:12:29;15.80;93.80
983;DHT22;480;48.124;11.578;2023-06-14T03:14:56;15.90;93.50
983;DHT22;480;48.124;11.578;2023-06-14T03:17:27;15.90;92.90
983;DHT22;480;48.124;11.578;2023-06-14T03:19:55;15.80;92.40
983;DHT22;480;48.124;11.578;2023-06-14T03:22:22;15.90;92.10
983;DHT22;480;48.124;11.578;2023-06-14T03:24:52;15.80;92.20
983;DHT22;480;48.124;11.578;2023-06-14T03:27:19;15.80;92.50
983;DHT22;480;48.124;11.578;2023-06-14T03:29:46;15.70;92.80
983;DHT22;480;48.124;11.578;2023-06-14T03:32:13;15.80;92.50
983;DHT22;480;48.124;11.578;2023-06-14T03:34:40;15.70;92.30
983;DHT22;480;48.124;11.578;2023-06-14T03:37:08;15.60;92.50
983;DHT22;480;48.124;11.578;2023-06-14T03:39:35;15.50;92.10
983;DHT22;480;48.124;11.578;2023-06-14T03:42:05;14.80;92.80
983;DHT22;480;48.124;11.578;2023-06-14T03:44:32;14.60;93.80
983;DHT22;480;48.124;11.578;2023-06-14T03:46:59;14.50;92.90
983;DHT22;480;48.124;11.578;2023-06-14T03:49:26;14.00;93.40
983;DHT22;480;48.124;11.578;2023-06-14T03:51:53;13.90;94.40
983;DHT22;480;48.124;11.578;2023-06-14T03:54:20;13.80;95.00
983;DHT22;480;48.124;11.578;2023-06-14T03:56:47;13.60;95.90
983;DHT22;480;48.124;11.578;2023-06-14T03:59:16;13.50;96.60
983;DHT22;480;48.124;11.578;2023-06-14T04:01:43;13.40;95.90
983;DHT22;480;48.124;11.578;2023-06-14T04:04:12;13.40;96.70
983;DHT22;480;48.124;11.578;2023-06-14T04:06:40;13.60;97.00
983;DHT22;480;48.124;11.578;2023-06-14T04:09:08;13.30;96.10
983;DHT22;480;48.124;11.578;2023-06-14T04:11:35;13.10;96.30
983;DHT22;480;48.124;11.578;2023-06-14T04:14:02;13.00;96.40
983;DHT22;480;48.124;11.578;2023-06-14T04:16:31;12.90;96.80
983;DHT22;480;48.124;11.578;2023-06-14T04:18:58;12.80;97.00
983;DHT22;480;48.124;11.578;2023-06-14T04:21:25;12.80;97.20
983;DHT22;480;48.124;11.578;2023-06-14T04:23:54;12.80;97.40
983;DHT22;480;48.124;11.578;2023-06-14T04:26:22;12.80;97.30
983;DHT22;480;48.124;11.578;2023-06-14T04:28:55;12.80;97.50
983;DHT22;480;48.124;11.578;2023-06-14T04:31:22;12.90;97.60
983;DHT22;480;48.124;11.578;2023-06-14T04:33:52;13.00;97.40
983;DHT22;480;48.124;11.578;2023-06-14T04:36:19;13.00;97.10
983;DHT22;480;48.124;11.578;2023-06-14T04:38:46;13.00;96.60
983;DHT22;480;48.124;11.578;2023-06-14T04:41:14;12.90;97.20
983;DHT22;480;48.124;11.578;2023-06-14T04:43:41;13.00;97.30
983;DHT22;480;48.124;11.578;2023-06-14T04:46:09;13.00;97.50
983;DHT22;480;48.124;11.578;2023-06-14T04:48:37;13.20;97.20
983;DHT22;480;48.124;11.578;2023-06-14T04:51:08;13.10;96.90
983;DHT22;480;48.124;11.578;2023-06-14T04:53:36;13.10;96.90
983;DHT22;480;48.124;11.578;2023-06-14T04:56:03;13.10;96.90
983;DHT22;480;48.124;11.578;2023-06-14T04:58:31;13.10;97.00
983;DHT22;480;48.124;11.578;2023-06-14T05:00:58;13.20;97.40
983;DHT22;480;48.124;11.578;2023-06-14T05:03:25;13.60;96.50
983;DHT22;480;48.124;11.578;2023-06-14T05:05:53;13.80;96.30
983;DHT22;480;48.124;11.578;2023-06-14T05:08:22;13.90;96.60
983;DHT22;480;48.124;11.578;2023-06-14T05:10:50;13.70;95.60
983;DHT22;480;48.124;11.578;2023-06-14T05:13:17;13.70;96.30
983;DHT22;480;48.124;11.578;2023-06-14T05:15:44;13.80;96.50
983;DHT22;480;48.124;11.578;2023-06-14T05:18:12;13.80;96.20
983;DHT22;480;48.124;11.578;2023-06-14T05:20:41;13.80;96.50
983;DHT22;480;48.124;11.578;2023-06-14T05:23:08;13.80;96.40
983;DHT22;480;48.124;11.578;2023-06-14T05:25:42;14.00;96.40
983;DHT22;480;48.124;11.578;2023-06-14T05:28:11;14.10;96.40
983;DHT22;480;48.124;11.578;2023-06-14T05:30:39;14.10;96.20
983;DHT22;480;48.124;11.578;2023-06-14T05:33:06;14.20;96.60
983;DHT22;480;48.124;11.578;2023-06-14T05:35:33;14.30;96.30
983;DHT22;480;48.124;11.578;2023-06-14T05:38:00;14.50;96.50
983;DHT22;480;48.124;11.578;2023-06-14T05:40:31;14.70;95.90
983;DHT22;480;48.124;11.578;2023-06-14T05:43:00;14.80;96.30
983;DHT22;480;48.124;11.578;2023-06-14T05:45:27;14.80;95.90
983;DHT22;480;48.124;11.578;2023-06-14T05:47:54;15.00;96.00
983;DHT22;480;48.124;11.578;2023-06-14T05:50:21;15.20;96.10
983;DHT22;480;48.124;11.578;2023-06-14T05:52:48;15.50;95.80
983;DHT22;480;48.124;11.578;2023-06-14T05:55:16;15.50;94.40
983;DHT22;480;48.124;11.578;2023-06-14T05:57:44;15.40;95.30
983;DHT22;480;48.124;11.578;2023-06-14T06:00:14;15.40;94.70
983;DHT22;480;48.124;11.578;2023-06-14T06:02:42;15.60;94.90
983;DHT22;480;48.124;11.578;2023-06-14T06:05:09;15.60;94.40
983;DHT22;480;48.124;11.578;2023-06-14T06:07:37;15.70;94.60
983;DHT22;480;48.124;11.578;2023-06-14T06:10:06;15.80;94.60
983;DHT22;480;48.124;11.578;2023-06-14T06:12:33;16.10;94.20
983;DHT22;480;48.124;11.578;2023-06-14T06:15:01;16.50;93.80
983;DHT22;480;48.124;11.578;2023-06-14T06:17:30;16.30;93.40
983;DHT22;480;48.124;11.578;2023-06-14T06:20:00;16.40;93.90
983;DHT22;480;48.124;11.578;2023-06-14T06:22:27;16.40;93.50
983;DHT22;480;48.124;11.578;2023-06-14T06:24:54;16.30;93.60
983;DHT22;480;48.124;11.578;2023-06-14T06:27:21;16.40;94.10
983;DHT22;480;48.124;11.578;2023-06-14T06:29:48;16.40;93.70
983;DHT22;480;48.124;11.578;2023-06-14T06:32:17;16.50;93.10
983;DHT22;480;48.124;11.578;2023-06-14T06:34:46;16.40;93.50
983;DHT22;480;48.124;11.578;2023-06-14T06:37:13;16.50;93.70
983;DHT22;480;48.124;11.578;2023-06-14T06:39:46;16.60;93.80
983;DHT22;480;48.124;11.578;2023-06-14T06:42:13;16.70;93.70
983;DHT22;480;48.124;11.578;2023-06-14T06:44:41;16.70;93.10
983;DHT22;480;48.124;11.578;2023-06-14T06:47:08;16.70;93.40
983;DHT22;480;48.124;11.578;2023-06-14T06:49:40;16.80;93.60
983;DHT22;480;48.124;11.578;2023-06-14T06:52:10;16.90;93.40
983;DHT22;480;48.124;11.578;2023-06-14T06:54:40;17.20;93.70
983;DHT22;480;48.124;11.578;2023-06-14T06:57:08;17.50;92.80
983;DHT22;480;48.124;11.578;2023-06-14T06:59:36;17.80;92.80
983;DHT22;480;48.124;11.578;2023-06-14T07:02:04;17.90;91.90
983;DHT22;480;48.124;11.578;2023-06-14T07:04:32;18.10;91.20
983;DHT22;480;48.124;11.578;2023-06-14T07:06:59;18.00;91.00
983;DHT22;480;48.124;11.578;2023-06-14T07:09:28;17.90;91.40
983;DHT22;480;48.124;11.578;2023-06-14T07:11:55;17.80;91.50
983;DHT22;480;48.124;11.578;2023-06-14T07:14:24;17.90;91.60
983;DHT22;480;48.124;11.578;2023-06-14T07:16:51;18.00;91.60
983;DHT22;480;48.124;11.578;2023-06-14T07:19:19;18.20;91.20
983;DHT22;480;48.124;11.578;2023-06-14T07:21:48;18.20;90.90
983;DHT22;480;48.124;11.578;2023-06-14T07:24:15;18.10;90.90
983;DHT22;480;48.124;11.578;2023-06-14T07:26:44;18.10;91.20
983;DHT22;480;48.124;11.578;2023-06-14T07:29:11;18.30;91.10
983;DHT22;480;48.124;11.578;2023-06-14T07:31:39;18.40;91.20
983;DHT22;480;48.124;11.578;2023-06-14T07:34:06;18.20;90.60
983;DHT22;480;48.124;11.578;2023-06-14T07:36:33;18.30;90.70
983;DHT22;480;48.124;11.578;2023-06-14T07:39:00;18.60;90.80
983;DHT22;480;48.124;11.578;2023-06-14T07:41:29;18.60;90.30
983;DHT22;480;48.124;11.578;2023-06-14T07:44:00;18.70;88.90
983;DHT22;480;48.124;11.578;2023-06-14T07:46:29;18.70;89.00
983;DHT22;480;48.124;11.578;2023-06-14T07:48:56;18.70;89.90
983;DHT22;480;48.124;11.578;2023-06-14T07:51:24;18.80;88.70
983;DHT22;480;48.124;11.578;2023-06-14T07:53:51;19.00;87.70
983;DHT22;480;48.124;11.578;2023-06-14T07:56:19;19.10;85.60
983;DHT22;480;48.124;11.578;2023-06-14T07:58:47;19.00;82.70
983;DHT22;480;48.124;11.578;2023-06-14T08:01:15;19.10;83.60
983;DHT22;480;48.124;11.578;2023-06-14T08:03:43;19.30;85.90
983;DHT22;480;48.124;11.578;2023-06-14T08:06:10;19.80;85.50
983;DHT22;480;48.124;11.578;2023-06-14T08:08:37;20.10;82.40
983;DHT22;480;48.124;11.578;2023-06-14T08:11:05;20.00;84.40
983;DHT22;480;48.124;11.578;2023-06-14T08:13:32;20.30;85.80
983;DHT22;480;48.124;11.578;2023-06-14T08:15:59;20.30;82.20
983;DHT22;480;48.124;11.578;2023-06-14T08:18:28;20.50;81.90
983;DHT22;480;48.124;11.578;2023-06-14T08:20:56;20.20;83.80
983;DHT22;480;48.124;11.578;2023-06-14T08:23:23;20.30;81.20
983;DHT22;480;48.124;11.578;2023-06-14T08:25:51;20.40;78.10
983;DHT22;480;48.124;11.578;2023-06-14T08:28:18;20.40;77.60
983;DHT22;480;48.124;11.578;2023-06-14T08:30:46;20.50;79.00
983;DHT22;480;48.124;11.578;2023-06-14T08:33:13;20.20;79.30
983;DHT22;480;48.124;11.578;2023-06-14T08:35:42;20.30;80.10
983;DHT22;480;48.124;11.578;2023-06-14T08:38:10;20.50;79.40
983;DHT22;480;48.124;11.578;2023-06-14T08:40:38;21.00;78.20
983;DHT22;480;48.124;11.578;2023-06-14T08:43:07;21.10;77.30
983;DHT22;480;48.124;11.578;2023-06-14T08:45:36;20.70;74.70
983;DHT22;480;48.124;11.578;2023-06-14T08:48:06;20.50;77.40
983;DHT22;480;48.124;11.578;2023-06-14T08:50:38;20.40;76.70
983;DHT22;480;48.124;11.578;2023-06-14T08:53:25;20.40;76.60
983;DHT22;480;48.124;11.578;2023-06-14T08:55:53;20.60;77.60
983;DHT22;480;48.124;11.578;2023-06-14T08:58:34;20.90;78.00
983;DHT22;480;48.124;11.578;2023-06-14T09:01:04;20.70;77.00
983;DHT22;480;48.124;11.578;2023-06-14T09:03:37;21.10;77.30
983;DHT22;480;48.124;11.578;2023-06-14T09:06:06;21.20;75.90
983;DHT22;480;48.124;11.578;2023-06-14T09:08:43;21.40;76.00
983;DHT22;480;48.124;11.578;2023-06-14T09:11:11;21.30;74.10
983;DHT22;480;48.124;11.578;2023-06-14T09:13:40;21.20;74.20
983;DHT22;480;48.124;11.578;2023-06-14T09:16:08;21.30;74.90
983;DHT22;480;48.124;11.578;2023-06-14T09:18:36;21.50;75.10
983;DHT22;480;48.124;11.578;2023-06-14T09:21:07;21.50;74.40
983;DHT22;480;48.124;11.578;2023-06-14T09:23:37;21.90;76.90
983;DHT22;480;48.124;11.578;2023-06-14T09:26:10;22.00;74.50
983;DHT22;480;48.124;11.578;2023-06-14T09:28:41;22.20;74.40
983;DHT22;480;48.124;11.578;2023-06-14T09:31:10;22.30;75.90
983;DHT22;480;48.124;11.578;2023-06-14T09:33:41;22.10;76.80
983;DHT22;480;48.124;11.578;2023-06-14T09:36:11;22.20;75.90
983;DHT22;480;48.124;11.578;2023-06-14T09:38:40;22.10;76.00
983;DHT22;480;48.124;11.578;2023-06-14T09:41:10;21.80;75.40
983;DHT22;480;48.124;11.578;2023-06-14T09:43:38;21.40;76.60
983;DHT22;480;48.124;11.578;2023-06-14T09:46:08;21.20;76.60
983;DHT22;480;48.124;11.578;2023-06-14T09:48:36;21.30;77.40
983;DHT22;480;48.124;11.578;2023-06-14T09:51:09;21.50;76.10
983;DHT22;480;48.124;11.578;2023-06-14T09:53:37;21.50;76.60
983;DHT22;480;48.124;11.578;2023-06-14T09:56:05;21.60;76.50
983;DHT22;480;48.124;11.578;2023-06-14T09:58:37;21.80;74.50
983;DHT22;480;48.124;11.578;2023-06-14T10:01:08;22.10;74.50
983;DHT22;480;48.124;11.578;2023-06-14T10:03:39;22.40;76.30
983;DHT22;480;48.124;11.578;2023-06-14T10:06:09;22.70;74.50
983;DHT22;480;48.124;11.578;2023-06-14T10:08:40;22.80;73.10
983;DHT22;480;48.124;11.578;2023-06-14T10:11:07;23.10;75.70
983;DHT22;480;48.124;11.578;2023-06-14T10:13:36;22.80;72.50
983;DHT22;480;48.124;11.578;2023-06-14T10:16:10;22.60;71.70
983;DHT22;480;48.124;11.578;2023-06-14T10:18:44;22.50;72.10
983;DHT22;480;48.124;11.578;2023-06-14T10:21:18;22.80;73.10
983;DHT22;480;48.124;11.578;2023-06-14T10:23:50;23.00;73.00
983;DHT22;480;48.124;11.578;2023-06-14T10:26:22;22.80;72.40
983;DHT22;480;48.124;11.578;2023-06-14T10:29:00;22.90;72.50
983;DHT22;480;48.124;11.578;2023-06-14T10:31:41;23.00;71.80
983;DHT22;480;48.124;11.578;2023-06-14T10:34:09;23.20;72.00
983;DHT22;480;48.124;11.578;2023-06-14T10:36:37;23.00;71.70
983;DHT22;480;48.124;11.578;2023-06-14T10:39:11;23.30;72.00
983;DHT22;480;48.124;11.578;2023-06-14T10:41:38;22.40;72.20
983;DHT22;480;48.124;11.578;2023-06-14T10:47:33;22.90;73.00
983;DHT22;480;48.124;11.578;2023-06-14T10:50:06;23.80;75.60
983;DHT22;480;48.124;11.578;2023-06-14T10:52:37;24.30;75.60
983;DHT22;480;48.124;11.578;2023-06-14T10:55:07;24.50;75.50
983;DHT22;480;48.124;11.578;2023-06-14T10:57:37;24.00;75.60
983;DHT22;480;48.124;11.578;2023-06-14T11:00:07;23.70;77.50
983;DHT22;480;48.124;11.578;2023-06-14T11:06:14;23.80;78.20
983;DHT22;480;48.124;11.578;2023-06-14T11:11:53;24.30;75.60
983;DHT22;480;48.124;11.578;2023-06-14T11:14:23;24.30;73.60
983;DHT22;480;48.124;11.578;2023-06-14T11:16:50;24.10;75.60
983;DHT22;480;48.124;11.578;2023-06-14T11:19:18;23.70;74.40
983;DHT22;480;48.124;11.578;2023-06-14T11:21:49;24.10;75.30
983;DHT22;480;48.124;11.578;2023-06-14T11:24:17;24.60;75.00
983;DHT22;480;48.124;11.578;2023-06-14T11:26:50;24.50;73.10
983;DHT22;480;48.124;11.578;2023-06-14T11:29:22;24.60;72.60
983;DHT22;480;48.124;11.578;2023-06-14T11:31:49;25.00;72.30
983;DHT22;480;48.124;11.578;2023-06-14T11:34:17;25.60;71.50
983;DHT22;480;48.124;11.578;2023-06-14T11:36:45;25.80;70.60
983;DHT22;480;48.124;11.578;2023-06-14T11:39:15;26.10;69.00
983;DHT22;480;48.124;11.578;2023-06-14T11:41:44;26.20;67.90
983;DHT22;480;48.124;11.578;2023-06-14T11:44:12;26.40;67.70
983;DHT22;480;48.124;11.578;2023-06-14T11:46:39;26.40;66.80
983;DHT22;480;48.124;11.578;2023-06-14T11:49:07;26.10;66.80
983;DHT22;480;48.124;11.578;2023-06-14T11:51:35;25.80;66.30
983;DHT22;480;48.124;11.578;2023-06-14T11:54:06;25.90;67.40
983;DHT22;480;48.124;11.578;2023-06-14T11:56:36;25.70;67.00
983;DHT22;480;48.124;11.578;2023-06-14T11:59:04;26.00;67.20
983;DHT22;480;48.124;11.578;2023-06-14T12:01:35;26.40;67.60
983;DHT22;480;48.124;11.578;2023-06-14T12:04:11;26.40;65.60
983;DHT22;480;48.124;11.578;2023-06-14T12:06:41;26.00;65.50
983;DHT22;480;48.124;11.578;2023-06-14T12:09:09;26.40;65.60
983;DHT22;480;48.124;11.578;2023-06-14T12:11:40;25.80;66.00
983;DHT22;480;48.124;11.578;2023-06-14T12:14:08;26.60;65.90
983;DHT22;480;48.124;11.578;2023-06-14T12:16:40;26.10;64.40
983;DHT22;480;48.124;11.578;2023-06-14T12:19:13;25.10;67.90
983;DHT22;480;48.124;11.578;2023-06-14T12:21:40;24.70;68.30
983;DHT22;480;48.124;11.578;2023-06-14T12:24:08;24.60;69.50
983;DHT22;480;48.124;11.578;2023-06-14T12:26:51;25.10;68.70
983;DHT22;480;48.124;11.578;2023-06-14T12:29:19;25.30;68.80
983;DHT22;480;48.124;11.578;2023-06-14T12:31:47;26.10;68.00
983;DHT22;480;48.124;11.578;2023-06-14T12:34:14;26.10;66.00
983;DHT22;480;48.124;11.578;2023-06-14T12:36:41;26.20;67.80
983;DHT22;480;48.124;11.578;2023-06-14T12:39:12;26.10;67.00
983;DHT22;480;48.124;11.578;2023-06-14T12:41:39;26.30;65.80
983;DHT22;480;48.124;11.578;2023-06-14T12:44:09;25.50;67.00
983;DHT22;480;48.124;11.578;2023-06-14T12:46:37;24.30;67.40
983;DHT22;480;48.124;11.578;2023-06-14T12:49:05;23.70;68.40
983;DHT22;480;48.124;11.578;2023-06-14T12:51:34;24.10;69.00
983;DHT22;480;48.124;11.578;2023-06-14T12:54:03;24.20;69.70
983;DHT22;480;48.124;11.578;2023-06-14T12:56:32;24.80;68.80
983;DHT22;480;48.124;11.578;2023-06-14T12:59:00;25.40;69.30
983;DHT22;480;48.124;11.578;2023-06-14T13:01:37;25.60;69.20
983;DHT22;480;48.124;11.578;2023-06-14T13:04:05;26.00;67.50
983;DHT22;480;48.124;11.578;2023-06-14T13:06:34;26.20;66.70
983;DHT22;480;48.124;11.578;2023-06-14T13:09:02;26.80;66.30
983;DHT22;480;48.124;11.578;2023-06-14T13:11:29;25.90;66.40
983;DHT22;480;48.124;11.578;2023-06-14T13:13:56;26.20;65.30
983;DHT22;480;48.124;11.578;2023-06-14T13:16:24;26.70;64.80
983;DHT22;480;48.124;11.578;2023-06-14T13:18:53;26.20;63.50
983;DHT22;480;48.124;11.578;2023-06-14T13:21:21;26.60;64.50
983;DHT22;480;48.124;11.578;2023-06-14T13:23:48;25.70;63.90
983;DHT22;480;48.124;11.578;2023-06-14T13:26:16;24.80;65.40
983;DHT22;480;48.124;11.578;2023-06-14T13:28:46;25.10;64.50
983;DHT22;480;48.124;11.578;2023-06-14T13:31:23;25.40;65.10
983;DHT22;480;48.124;11.578;2023-06-14T13:33:50;25.40;63.90
983;DHT22;480;48.124;11.578;2023-06-14T13:36:22;25.90;64.00
983;DHT22;480;48.124;11.578;2023-06-14T13:38:49;25.90;65.30
983;DHT22;480;48.124;11.578;2023-06-14T13:41:17;25.70;64.10
983;DHT22;480;48.124;11.578;2023-06-14T13:43:44;25.40;65.40
983;DHT22;480;48.124;11.578;2023-06-14T13:46:12;24.50;65.10
983;DHT22;480;48.124;11.578;2023-06-14T13:48:39;24.20;65.40
983;DHT22;480;48.124;11.578;2023-06-14T13:51:13;24.00;65.60
983;DHT22;480;48.124;11.578;2023-06-14T13:53:46;24.00;66.60
983;DHT22;480;48.124;11.578;2023-06-14T13:56:24;24.20;66.90
983;DHT22;480;48.124;11.578;2023-06-14T13:59:08;24.40;66.10
983;DHT22;480;48.124;11.578;2023-06-14T14:01:43;24.10;65.70
983;DHT22;480;48.124;11.578;2023-06-14T14:04:23;23.90;66.10
983;DHT22;480;48.124;11.578;2023-06-14T14:06:54;23.70;64.40
983;DHT22;480;48.124;11.578;2023-06-14T14:09:24;24.60;65.70
983;DHT22;480;48.124;11.578;2023-06-14T14:11:57;24.90;63.80
983;DHT22;480;48.124;11.578;2023-06-14T14:14:24;24.90;63.60
983;DHT22;480;48.124;11.578;2023-06-14T14:16:52;25.50;62.60
983;DHT22;480;48.124;11.578;2023-06-14T14:19:21;26.00;62.50
983;DHT22;480;48.124;11.578;2023-06-14T14:21:51;26.30;62.40
983;DHT22;480;48.124;11.578;2023-06-14T14:24:20;26.80;60.70
983;DHT22;480;48.124;11.578;2023-06-14T14:26:49;27.30;60.20
983;DHT22;480;48.124;11.578;2023-06-14T14:29:19;26.80;59.90
983;DHT22;480;48.124;11.578;2023-06-14T14:31:46;26.60;60.90
983;DHT22;480;48.124;11.578;2023-06-14T14:34:13;26.70;60.30
983;DHT22;480;48.124;11.578;2023-06-14T14:36:41;26.40;60.90
983;DHT22;480;48.124;11.578;2023-06-14T14:39:11;26.60;61.30
983;DHT22;480;48.124;11.578;2023-06-14T14:41:38;26.70;61.60
983;DHT22;480;48.124;11.578;2023-06-14T14:44:07;25.90;60.80
983;DHT22;480;48.124;11.578;2023-06-14T14:46:34;26.10;61.20
983;DHT22;480;48.124;11.578;2023-06-14T14:49:01;26.10;60.50
983;DHT22;480;48.124;11.578;2023-06-14T14:51:29;26.30;59.70
983;DHT22;480;48.124;11.578;2023-06-14T14:53:58;26.80;60.90
983;DHT22;480;48.124;11.578;2023-06-14T14:56:25;27.50;61.50
983;DHT22;480;48.124;11.578;2023-06-14T14:58:53;27.30;61.50
983;DHT22;480;48.124;11.578;2023-06-14T15:01:24;26.90;64.00
983;DHT22;480;48.124;11.578;2023-06-14T15:04:05;26.90;63.20
983;DHT22;480;48.124;11.578;2023-06-14T15:06:34;27.30;62.60
983;DHT22;480;48.124;11.578;2023-06-14T15:09:02;27.30;62.30
983;DHT22;480;48.124;11.578;2023-06-14T15:11:29;26.80;62.10
983;DHT22;480;48.124;11.578;2023-06-14T15:13:56;26.90;62.30
983;DHT22;480;48.124;11.578;2023-06-14T15:16:27;27.00;62.50
983;DHT22;480;48.124;11.578;2023-06-14T15:18:55;26.70;64.30
983;DHT22;480;48.124;11.578;2023-06-14T15:21:22;27.20;64.20
983;DHT22;480;48.124;11.578;2023-06-14T15:23:50;27.20;61.80
983;DHT22;480;48.124;11.578;2023-06-14T15:26:19;27.00;61.30
983;DHT22;480;48.124;11.578;2023-06-14T15:28:47;27.30;61.60
983;DHT22;480;48.124;11.578;2023-06-14T15:31:16;26.90;62.60
983;DHT22;480;48.124;11.578;2023-06-14T15:33:46;26.30;62.50
983;DHT22;480;48.124;11.578;2023-06-14T15:36:14;26.50;63.20
983;DHT22;480;48.124;11.578;2023-06-14T15:38:41;26.20;63.20
983;DHT22;480;48.124;11.578;2023-06-14T15:41:09;26.70;63.60
983;DHT22;480;48.124;11.578;2023-06-14T15:43:36;26.70;63.40
983;DHT22;480;48.124;11.578;2023-06-14T15:46:03;25.90;65.30
983;DHT22;480;48.124;11.578;2023-06-14T15:48:30;26.00;66.30
983;DHT22;480;48.124;11.578;2023-06-14T15:50:58;26.20;65.40
983;DHT22;480;48.124;11.578;2023-06-14T15:53:26;26.00;65.20
983;DHT22;480;48.124;11.578;2023-06-14T15:56:00;25.90;66.00
983;DHT22;480;48.124;11.578;2023-06-14T15:58:27;25.50;67.50
983;DHT22;480;48.124;11.578;2023-06-14T16:00:54;25.40;68.40
983;DHT22;480;48.124;11.578;2023-06-14T16:03:21;25.30;68.70
983;DHT22;480;48.124;11.578;2023-06-14T16:05:50;24.80;70.00
983;DHT22;480;48.124;11.578;2023-06-14T16:08:20;24.60;69.80
983;DHT22;480;48.124;11.578;2023-06-14T16:10:48;24.50;70.50
983;DHT22;480;48.124;11.578;2023-06-14T16:13:15;24.50;70.00
983;DHT22;480;48.124;11.578;2023-06-14T16:15:42;24.50;70.60
983;DHT22;480;48.124;11.578;2023-06-14T16:18:10;24.50;68.90
983;DHT22;480;48.124;11.578;2023-06-14T16:20:37;24.20;68.00
983;DHT22;480;48.124;11.578;2023-06-14T16:23:04;24.00;69.80
983;DHT22;480;48.124;11.578;2023-06-14T16:25:33;23.90;70.80
983;DHT22;480;48.124;11.578;2023-06-14T16:28:00;24.00;71.40
983;DHT22;480;48.124;11.578;2023-06-14T16:30:27;23.90;71.20
983;DHT22;480;48.124;11.578;2023-06-14T16:32:55;24.10;70.70
983;DHT22;480;48.124;11.578;2023-06-14T16:35:23;24.00;71.50
983;DHT22;480;48.124;11.578;2023-06-14T16:37:53;23.90;71.10